Flight Track Log - Related Links

Times and Time Zones

All times are in EDT time to prevent confusion due to time zone crossing. See the N665QS flight status page for this flight to view local times or setup timezone preferences in your user account.

Time Position Orientation Groundspeed Altitude Reporting Facility
EDT Latitude Longitude Course Direction KTS MPH feet Rate Location/Type
Mon 09:45:56 AM 25.8003 -80.2700 80° East 168 193 1,100  Level Miami Center
Mon 09:46:51 AM 25.8078 -80.2217 53° Northeast 180 207 3,500 2,661 Climbing Miami Center
Mon 09:47:51 AM 25.8400 -80.1742 336° Northwest 253 291 6,200 1,780 Climbing Miami Center
Mon 09:48:49 AM 25.9000 -80.2033 320° Northwest 297 342 7,000 407 Climbing Miami Center
Mon 09:49:49 AM 25.9614 -80.2606 329° Northwest 297 342 7,000 950 Level Miami Center
Mon 09:50:49 AM 26.0292 -80.3064 331° Northwest 287 330 8,900 2,200 Climbing Miami Center
Mon 09:51:49 AM 26.0992 -80.3500 331° Northwest 282 325 11,400 2,500 Climbing Miami Center
Mon 09:52:49 AM 26.1692 -80.3939 335° Northwest 282 325 13,900 2,250 Climbing Miami Center
Mon 09:53:49 AM 26.2456 -80.4331 342° North 289 333 15,900 1,950 Climbing Miami Center
Mon 09:54:49 AM 26.3344 -80.4658 340° North 302 348 17,800 1,600 Climbing Miami Center
Mon 09:55:49 AM 26.4214 -80.5011 342° North 316 364 19,100 1,300 Climbing Miami Center
Mon 09:56:49 AM 26.5042 -80.5317 341° North 334 384 20,400 1,450 Climbing Miami Center
Mon 09:57:49 AM 26.6097 -80.5719 340° North 353 406 22,000 1,500 Climbing Miami Center
Mon 09:58:49 AM 26.6964 -80.6072 341° North 365 420 23,400 1,450 Climbing Miami Center
Mon 09:59:49 AM 26.7956 -80.6453 341° North 365 420 24,900 1,500 Climbing Miami Center
Mon 10:00:49 AM 26.8928 -80.6833 341° North 365 420 26,400 1,400 Climbing Miami Center
Mon 10:01:49 AM 26.9919 -80.7217 340° North 365 420 27,700 1,200 Climbing Miami Center
Mon 10:02:49 AM 27.0911 -80.7622 342° North 370 426 28,800 1,000 Climbing Miami Center
Mon 10:03:49 AM 27.1944 -80.8008 341° North 376 433 29,700 900 Climbing Miami Center
Mon 10:04:49 AM 27.2978 -80.8417 340° North 382 440 30,600 900 Climbing Miami Center
Mon 10:05:49 AM 27.4053 -80.8850 341° North 387 445 31,500 1,050 Climbing Miami Center
Mon 10:06:49 AM 27.5106 -80.9264 341° North 392 451 32,700 1,150 Climbing Miami Center
Mon 10:07:49 AM 27.6136 -80.9675 341° North 392 451 33,800 1,150 Climbing Miami Center
Mon 10:08:49 AM 27.7189 -81.0086 341° North 398 458 35,000 1,250 Climbing Miami Center
Mon 10:09:49 AM 27.8200 -81.0475 341° North 393 452 36,300 1,450 Climbing Miami Center
Mon 10:10:49 AM 27.9192 -81.0864 341° North 387 445 37,900 1,450 Climbing Miami Center
Mon 10:11:49 AM 28.0244 -81.1281 341° North 370 426 39,200 1,100 Climbing Miami Center
Mon 10:12:49 AM 28.1089 -81.1619 340° North 365 420 40,100 800 Climbing Miami Center
Mon 10:13:49 AM 28.2036 -81.2008 341° North 365 420 40,800 327 Climbing Miami Center
Mon 10:15:34 AM 28.3797 -81.2717 340° North 384 442 41,000 73 Climbing Jacksonville Center
Mon 10:16:34 AM 28.4825 -81.3150 347° North 391 450 41,000  Level Jacksonville Center
Mon 10:17:34 AM 28.5914 -81.3439 355° North 391 450 41,000  Level Jacksonville Center
Mon 10:18:34 AM 28.7042 -81.3542 356° North 397 457 41,000  Level Jacksonville Center
Mon 10:19:34 AM 28.8211 -81.3642 355° North 409 471 41,000  Level Jacksonville Center
Mon 10:20:34 AM 28.9361 -81.3767 355° North 409 471 41,000  Level Jacksonville Center
Mon 10:21:34 AM 29.0469 -81.3867 358° North 409 471 41,000  Level Jacksonville Center
Mon 10:22:34 AM 29.1617 -81.3922 North 409 471 41,000  Level Jacksonville Center
Mon 10:23:34 AM 29.2764 -81.3881 North 404 465 41,000  Level Jacksonville Center
Mon 10:24:34 AM 29.3892 -81.3792 North 404 465 41,000  Level Jacksonville Center
Mon 10:25:34 AM 29.5142 -81.3725 North 404 465 41,000  Level Jacksonville Center
Mon 10:26:34 AM 29.6311 -81.3633 North 404 465 41,000  Level Jacksonville Center
Mon 10:27:34 AM 29.7458 -81.3544 North 409 471 41,000  Level Jacksonville Center
Mon 10:28:34 AM 29.8606 -81.3478 North 409 471 41,000  Level Jacksonville Center
Mon 10:29:34 AM 29.9731 -81.3411 North 404 465 41,000  Level Jacksonville Center
Mon 10:30:34 AM 30.0919 -81.3344 North 404 465 41,000  Level Jacksonville Center
Mon 10:31:34 AM 30.2067 -81.3256 North 404 465 41,000  Level Jacksonville Center
Mon 10:32:34 AM 30.3194 -81.3164 North 404 465 41,000  Level Jacksonville Center
Mon 10:33:34 AM 30.4342 -81.3097 North 404 465 41,000  Level Jacksonville Center
Mon 10:34:34 AM 30.5489 -81.3031 North 404 465 41,000  Level Jacksonville Center
Mon 10:35:34 AM 30.6636 -81.2939 North 404 465 41,000  Level Jacksonville Center
Mon 10:36:34 AM 30.7761 -81.2775 23° Northeast 404 465 41,000  Level Jacksonville Center
Mon 10:37:34 AM 30.8842 -81.2247 23° Northeast 404 465 41,000  Level Jacksonville Center
Mon 10:38:34 AM 30.9919 -81.1719 23° Northeast 404 465 41,000  Level Jacksonville Center
Mon 10:39:34 AM 31.0978 -81.1192 22° Northeast 409 471 41,000  Level Jacksonville Center
Mon 10:40:34 AM 31.2075 -81.0683 22° Northeast 414 476 41,000  Level Jacksonville Center
Mon 10:41:34 AM 31.3133 -81.0178 20° North 416 479 41,000  Level Jacksonville Center
Mon 10:42:34 AM 31.4131 -80.9744 22° Northeast 411 473 41,000  Level Jacksonville Center
Mon 10:43:34 AM 31.5289 -80.9183 22° Northeast 411 473 41,000  Level Jacksonville Center
Mon 10:44:34 AM 31.6389 -80.8672 23° Northeast 411 473 41,000  Level Jacksonville Center
Mon 10:45:34 AM 31.7361 -80.8186 22° Northeast 411 473 41,000  Level Jacksonville Center
Mon 10:46:34 AM 31.8542 -80.7622 22° Northeast 411 473 41,000  Level Jacksonville Center
Mon 10:47:34 AM 31.9536 -80.7158 22° Northeast 411 473 41,000  Level Jacksonville Center
Mon 10:48:34 AM 32.0614 -80.6642 23° Northeast 411 473 41,000  Level Jacksonville Center
Mon 10:49:34 AM 32.1669 -80.6103 21° North 411 473 41,000  Level Jacksonville Center
Mon 10:50:34 AM 32.2786 -80.5583 22° Northeast 411 473 41,000  Level Jacksonville Center
Mon 10:51:34 AM 32.3861 -80.5064 24° Northeast 416 479 41,000  Level Jacksonville Center
Mon 10:52:34 AM 32.4917 -80.4517 21° North 416 479 41,000  Level Jacksonville Center
Mon 10:53:34 AM 32.6014 -80.4019 23° Northeast 411 473 41,000  Level Jacksonville Center
Mon 10:54:34 AM 32.7108 -80.3472 23° Northeast 411 473 41,000  Level Jacksonville Center
Mon 10:55:34 AM 32.8161 -80.2947 23° Northeast 411 473 41,000  Level Jacksonville Center
Mon 10:56:34 AM 32.9217 -80.2422 22° Northeast 411 473 41,000  Level Jacksonville Center
Mon 10:57:34 AM 33.0333 -80.1894 23° Northeast 421 484 41,000  Level Jacksonville Center
Mon 10:58:34 AM 33.1406 -80.1339 21° North 421 484 41,000  Level Jacksonville Center
Mon 10:59:34 AM 33.2644 -80.0756 23° Northeast 421 484 41,000  Level Jacksonville Center
Mon 11:00:34 AM 33.3675 -80.0225 22° Northeast 415 478 41,000  Level Jacksonville Center
Mon 11:01:34 AM 33.4728 -79.9717 23° Northeast 410 472 41,000  Level Jacksonville Center
Mon 11:02:34 AM 33.5781 -79.9183 22° Northeast 410 472 41,000  Level Jacksonville Center
Mon 11:03:34 AM 33.6853 -79.8650 23° Northeast 410 472 41,000  Level Jacksonville Center
Mon 11:04:34 AM 33.7906 -79.8114 23° Northeast 410 472 41,000  Level Jacksonville Center
Mon 11:05:34 AM 33.8956 -79.7578 23° Northeast 410 472 41,000  Level Jacksonville Center
Mon 11:06:34 AM 34.0006 -79.7039 23° Northeast 410 472 41,000  Level Jacksonville Center
Mon 11:07:34 AM 34.1056 -79.6497 23° Northeast 410 472 41,000  Level Jacksonville Center
Mon 11:08:34 AM 34.2128 -79.5956 24° Northeast 410 472 41,000  Level Jacksonville Center
Mon 11:10:17 AM 34.3833 -79.5025 22° Northeast 411 473 41,000  Level Washington Center
Mon 11:11:19 AM 34.4936 -79.4497 22° Northeast 411 473 41,000  Level Washington Center
Mon 11:12:19 AM 34.6017 -79.3969 23° Northeast 416 479 41,000  Level Washington Center
Mon 11:13:17 AM 34.7203 -79.3367 24° Northeast 416 479 41,000  Level Washington Center
Mon 11:14:18 AM 34.8286 -79.2783 22° Northeast 423 487 41,000  Level Washington Center
Mon 11:15:18 AM 34.9367 -79.2250 23° Northeast 418 481 41,000  Level Washington Center
Mon 11:16:18 AM 35.0447 -79.1692 23° Northeast 423 487 41,000  Level Washington Center
Mon 11:17:19 AM 35.1550 -79.1106 22° Northeast 423 487 41,000  Level Washington Center
Mon 11:18:17 AM 35.2631 -79.0567 23° Northeast 423 487 41,000  Level Washington Center
Mon 11:19:18 AM 35.3711 -79.0003 23° Northeast 423 487 41,000  Level Washington Center
Mon 11:20:19 AM 35.4811 -78.9436 23° Northeast 423 487 41,000  Level Washington Center
Mon 11:21:19 AM 35.5764 -78.8942 24° Northeast 423 487 41,000  Level Washington Center
Mon 11:22:17 AM 35.6864 -78.8347 23° Northeast 423 487 41,000  Level Washington Center
Mon 11:23:18 AM 35.7944 -78.7775 24° Northeast 423 487 41,000  Level Washington Center
Mon 11:24:19 AM 35.9131 -78.7131 23° Northeast 418 481 41,000  Level Washington Center
Mon 11:25:19 AM 36.0231 -78.6558 24° Northeast 418 481 41,000  Level Washington Center
Mon 11:26:17 AM 36.1267 -78.5981 23° Northeast 418 481 41,000  Level Washington Center
Mon 11:27:17 AM 36.2325 -78.5431 24° Northeast 413 475 41,000  Level Washington Center
Mon 11:28:18 AM 36.3381 -78.4850 23° Northeast 406 467 41,000  Level Washington Center
Mon 11:29:19 AM 36.4439 -78.4297 23° Northeast 406 467 41,000  Level Washington Center
Mon 11:30:19 AM 36.5472 -78.3739 26° Northeast 401 461 41,000  Level Washington Center
Mon 11:31:17 AM 36.6383 -78.3175 33° Northeast 406 467 41,000  Level Washington Center
Mon 11:32:17 AM 36.7361 -78.2381 33° Northeast 401 461 41,000  Level Washington Center
Mon 11:33:18 AM 36.8317 -78.1608 33° Northeast 406 467 41,000  Level Washington Center
Mon 11:34:19 AM 36.9250 -78.0836 34° Northeast 406 467 41,000  Level Washington Center
Mon 11:35:19 AM 37.0186 -78.0033 34° Northeast 406 467 41,000  Level Washington Center
Mon 11:36:17 AM 37.1161 -77.9203 34° Northeast 406 467 41,000  Level Washington Center
Mon 11:37:18 AM 37.2094 -77.8422 33° Northeast 406 467 41,000  Level Washington Center
Mon 11:38:19 AM 37.3069 -77.7617 34° Northeast 406 467 41,000  Level Washington Center
Mon 11:39:16 AM 37.4000 -77.6833 33° Northeast 406 467 41,000  Level Washington Center
Mon 11:40:18 AM 37.4953 -77.6047 33° Northeast 406 467 41,000  Level Washington Center
Mon 11:41:18 AM 37.5883 -77.5286 35° Northeast 406 467 41,000  Level Washington Center
Mon 11:42:19 AM 37.6772 -77.4494 33° Northeast 406 467 41,000  Level Washington Center
Mon 11:43:17 AM 37.7700 -77.3731 34° Northeast 406 467 41,000  Level Washington Center
Mon 11:44:18 AM 37.8608 -77.2961 34° Northeast 406 467 41,000  Level Washington Center
Mon 11:45:18 AM 37.9517 -77.2192 35° Northeast 401 461 41,000  Level Washington Center
Mon 11:46:19 AM 38.0381 -77.1419 34° Northeast 395 455 41,000 -248 Level Washington Center
Mon 11:47:19 AM 38.1267 -77.0672 35° Northeast 390 449 40,500 -1,271 Descending Washington Center
Mon 11:48:17 AM 38.2131 -76.9897 39° Northeast 384 442 38,500 -2,136 Descending Washington Center
Mon 11:49:17 AM 38.3017 -76.8989 39° Northeast 384 442 36,300 -2,115 Descending Washington Center
Mon 11:50:19 AM 38.3903 -76.8075 40° Northeast 395 455 34,200 -2,066 Descending Washington Center
Mon 11:51:19 AM 38.4744 -76.7161 34° Northeast 400 460 32,100 -1,913 Descending Washington Center
Mon 11:55:17 AM 38.8586 -76.3833 22° Northeast 415 478 24,700 -1,631 Descending Washington Center
Mon 11:56:17 AM 38.9653 -76.3283 20° North 410 472 24,000 -347 Descending Washington Center
Mon 11:57:18 AM 39.0844 -76.2736 31° Northeast 410 472 24,000  Level Washington Center
Mon 11:58:18 AM 39.1806 -76.1994 41° Northeast 404 465 24,000  Level Washington Center
Mon 11:59:19 AM 39.2603 -76.1089 37° Northeast 410 472 24,000 -750 Level Washington Center
Mon 12:00:18 PM 39.3503 -76.0211 39° Northeast 410 472 22,500 -1,856 Descending Washington Center
Mon 12:00:56 PM 39.4133 -75.9556 36° Northeast 384 442 21,000 -2,077 Descending FAA TRACON SMA TRACON (SMA)
Mon 12:01:36 PM 39.4675 -75.9047 36° Northeast 389 448 19,800 -2,100 Descending FAA TRACON SMA TRACON (SMA)
Mon 12:02:16 PM 39.5286 -75.8481 37° Northeast 391 450 18,200 -1,950 Descending FAA TRACON SMA TRACON (SMA)
Mon 12:02:56 PM 39.5856 -75.7919 35° Northeast 384 442 17,200 -1,575 Descending FAA TRACON SMA TRACON (SMA)
Mon 12:03:36 PM 39.6375 -75.7450 35° Northeast 360 414 16,100 -1,800 Descending FAA TRACON SMA TRACON (SMA)
Mon 12:04:16 PM 39.6939 -75.6931 34° Northeast 361 415 14,800 -1,875 Descending FAA TRACON SMA TRACON (SMA)
Mon 12:04:56 PM 39.7508 -75.6436 37° Northeast 366 421 13,600 -1,350 Descending FAA TRACON SMA TRACON (SMA)
Mon 12:05:36 PM 39.8022 -75.5933 35° Northeast 361 415 13,000 -450 Descending FAA TRACON SMA TRACON (SMA)
Mon 12:06:16 PM 39.8583 -75.5417 35° Northeast 357 411 13,000  Level FAA TRACON SMA TRACON (SMA)
Mon 12:06:56 PM 39.9142 -75.4900 35° Northeast 354 407 13,000  Level FAA TRACON SMA TRACON (SMA)
Mon 12:07:36 PM 39.9644 -75.4442 36° Northeast 353 406 13,000  Level FAA TRACON SMA TRACON (SMA)
Mon 12:08:19 PM 40.0194 -75.3925 35° Northeast 350 403 13,000  Level FAA TRACON SMA TRACON (SMA)
Mon 12:08:56 PM 40.0689 -75.3469 36° Northeast 351 404 13,000  Level FAA TRACON SMA TRACON (SMA)
Mon 12:09:36 PM 40.1217 -75.2967 35° Northeast 350 403 13,000 -225 Level FAA TRACON SMA TRACON (SMA)
Mon 12:10:16 PM 40.1783 -75.2442 35° Northeast 347 399 12,700 -1,012 Descending FAA TRACON SMA TRACON (SMA)
Mon 12:10:59 PM 40.2286 -75.1978 35° Northeast 315 362 11,600 -1,575 Descending FAA TRACON SMA TRACON (SMA)
Mon 12:11:36 PM 40.2706 -75.1586 36° Northeast 302 348 10,600 -1,714 Descending FAA TRACON SMA TRACON (SMA)
Mon 12:12:16 PM 40.3161 -75.1156 46° Northeast 295 339 9,400 -1,650 Descending FAA TRACON SMA TRACON (SMA)
Mon 12:12:56 PM 40.3517 -75.0678 47° Northeast 293 337 8,400 -1,575 Descending FAA TRACON SMA TRACON (SMA)
Mon 12:13:36 PM 40.3900 -75.0147 47° Northeast 288 331 7,300 -1,125 Descending FAA TRACON SMA TRACON (SMA)
Mon 12:14:16 PM 40.4275 -74.9619 28° Northeast 284 327 6,900 -600 Descending FAA TRACON SMA TRACON (SMA)
Mon 12:14:56 PM 40.4678 -74.9339 27° Northeast 272 313 6,500 -675 Descending FAA TRACON SMA TRACON (SMA)
Mon 12:15:36 PM 40.5136 -74.9033 28° Northeast 272 313 6,000 -600 Descending FAA TRACON SMA TRACON (SMA)
Mon 12:16:16 PM 40.5453 -74.8808 36° Northeast 272 313 5,700 -671 Descending FAA TRACON SMA TRACON (SMA)
Mon 12:18:26 PM 40.6833 -74.7500 45° Northeast 267 307 4,100 -505 Descending New York TRACON
Mon 12:19:26 PM 40.7333 -74.6833 45° Northeast 265 305 4,100  Level New York TRACON
Mon 12:20:26 PM 40.7833 -74.6167 45° Northeast 262 302 4,100 -400 Level New York TRACON
Mon 12:21:26 PM 40.8333 -74.5500 52° Northeast 255 293 3,300 -550 Descending New York TRACON
Mon 12:22:26 PM 40.8833 -74.4667 62° Northeast 257 296 3,000 -104 Descending New York TRACON
Mon 12:23:21 PM 40.9167 -74.3833 62° Northeast 258 297 3,100 50 Climbing New York TRACON
Mon 12:24:26 PM 40.9500 -74.3000 75° East 258 297 3,100 -143 Level New York TRACON
Mon 12:25:27 PM 40.9667 -74.2167 108° East 236 272 2,800 -500 Descending New York TRACON
Mon 12:26:26 PM 40.9500 -74.1500 108° East 197 227 2,100 -579 Descending New York TRACON
Mon 12:27:21 PM 40.9333 -74.0833 143° Southeast 169 194 1,700 -500 Descending New York TRACON
Mon 12:28:26 PM 40.9000 -74.0500 180° South 128 147 1,100 -650 Descending New York TRACON
Mon 12:29:21 PM 40.8667 -74.0500 180° South 123 142 400 -764 Descending New York TRACON

Login

Don't have an account? Register now (free) for customized features, flight alerts, and more!